createdAt,value
2018-11-29T00:02:13.277Z,-2.97
2018-11-29T00:04:43.584Z,-2.97
2018-11-29T00:07:14.609Z,-3.04
2018-11-29T00:09:46.869Z,-3.20
2018-11-29T00:12:19.504Z,-3.32
2018-11-29T00:14:49.367Z,-3.41
2018-11-29T00:17:20.340Z,-3.50
2018-11-29T00:19:53.575Z,-3.35
2018-11-29T00:22:27.092Z,-3.35
2018-11-29T00:25:05.928Z,-3.33
2018-11-29T00:27:39.058Z,-3.40
2018-11-29T00:30:17.002Z,-3.50
2018-11-29T00:32:49.999Z,-3.60
2018-11-29T00:35:19.616Z,-3.64
2018-11-29T00:37:50.832Z,-3.68
2018-11-29T00:40:22.542Z,-3.57
2018-11-29T00:42:52.847Z,-3.63
2018-11-29T00:45:24.232Z,-3.80
2018-11-29T00:47:55.493Z,-3.85
2018-11-29T00:50:25.520Z,-3.89
2018-11-29T00:53:03.050Z,-3.88
2018-11-29T00:55:33.513Z,-3.87
2018-11-29T00:58:04.819Z,-3.91
2018-11-29T01:00:34.568Z,-3.99
2018-11-29T01:03:05.624Z,-4.05
2018-11-29T01:05:36.588Z,-4.10
2018-11-29T01:08:06.891Z,-4.08
2018-11-29T01:10:36.728Z,-4.11
2018-11-29T01:13:07.824Z,-4.14
2018-11-29T01:15:38.846Z,-4.18
2018-11-29T01:18:08.539Z,-4.23
2018-11-29T01:20:39.703Z,-4.24
2018-11-29T01:23:10.817Z,-4.29
2018-11-29T01:25:41.612Z,-4.30
2018-11-29T01:28:12.966Z,-4.37
2018-11-29T01:30:50.357Z,-4.36
2018-11-29T01:33:20.483Z,-4.31
2018-11-29T01:35:53.579Z,-4.28
2018-11-29T01:38:25.867Z,-4.27
2018-11-29T01:40:56.852Z,-4.29
2018-11-29T01:43:27.923Z,-4.32
2018-11-29T01:45:58.894Z,-4.27
2018-11-29T01:48:28.769Z,-4.31
2018-11-29T01:50:59.815Z,-4.29
2018-11-29T01:53:30.300Z,-4.36
2018-11-29T01:56:00.765Z,-4.43
2018-11-29T01:58:30.336Z,-4.45
2018-11-29T02:01:04.686Z,-4.48
2018-11-29T02:03:34.933Z,-4.54
2018-11-29T02:06:06.811Z,-4.54
2018-11-29T02:08:36.999Z,-4.59
2018-11-29T02:11:07.240Z,-4.62
2018-11-29T02:13:38.004Z,-4.65
2018-11-29T02:16:09.050Z,-4.67
2018-11-29T02:18:39.016Z,-4.67
2018-11-29T02:21:10.081Z,-4.70
2018-11-29T02:23:41.095Z,-4.73
2018-11-29T02:26:11.220Z,-4.71
2018-11-29T02:28:47.305Z,-4.69
2018-11-29T02:31:18.846Z,-4.66
2018-11-29T02:33:49.172Z,-4.68
2018-11-29T02:36:19.737Z,-4.74
2018-11-29T02:38:51.110Z,-4.77
2018-11-29T02:41:23.215Z,-4.74
2018-11-29T02:43:55.018Z,-4.75
2018-11-29T02:46:26.051Z,-4.70
2018-11-29T02:48:57.153Z,-4.73
2018-11-29T02:51:29.181Z,-4.81
2018-11-29T02:54:01.052Z,-4.80
2018-11-29T02:56:32.061Z,-4.80
2018-11-29T02:59:02.905Z,-4.90
2018-11-29T03:01:33.200Z,-4.95
2018-11-29T03:04:04.016Z,-5.00
2018-11-29T03:06:34.596Z,-5.06
2018-11-29T03:09:08.017Z,-5.12
2018-11-29T03:11:38.298Z,-5.10
2018-11-29T03:14:09.151Z,-5.04
2018-11-29T03:16:40.442Z,-5.06
2018-11-29T03:19:10.086Z,-5.07
2018-11-29T03:21:42.279Z,-5.04
2018-11-29T03:24:13.202Z,-5.02
2018-11-29T03:26:45.363Z,-4.97
2018-11-29T03:29:17.299Z,-4.98
2018-11-29T03:31:49.352Z,-4.95
2018-11-29T03:34:19.902Z,-5.04
2018-11-29T03:36:57.006Z,-5.06
2018-11-29T03:39:27.956Z,-5.02
2018-11-29T03:41:58.525Z,-5.05
2018-11-29T03:44:29.421Z,-5.11
2018-11-29T03:47:00.014Z,-5.13
2018-11-29T03:49:30.659Z,-5.15
2018-11-29T03:52:01.179Z,-5.22
2018-11-29T03:54:32.324Z,-5.18
2018-11-29T03:57:03.213Z,-5.24
2018-11-29T03:59:34.040Z,-5.33
2018-11-29T04:02:04.605Z,-5.33
2018-11-29T04:04:35.528Z,-5.24
2018-11-29T04:07:09.302Z,-5.17
2018-11-29T04:09:39.447Z,-5.04
2018-11-29T04:12:10.585Z,-5.10
2018-11-29T04:14:40.547Z,-5.17
2018-11-29T04:17:11.391Z,-5.14
2018-11-29T04:19:41.601Z,-5.23
2018-11-29T04:22:12.478Z,-5.27
2018-11-29T04:24:42.711Z,-5.21
2018-11-29T04:27:13.364Z,-5.19
2018-11-29T04:29:46.836Z,-5.06
2018-11-29T04:32:17.535Z,-5.11
2018-11-29T04:34:48.712Z,-5.15
2018-11-29T04:37:18.502Z,-5.17
2018-11-29T04:39:49.582Z,-5.14
2018-11-29T04:42:19.904Z,-5.08
2018-11-29T04:44:50.597Z,-5.10
2018-11-29T04:47:20.315Z,-5.15
2018-11-29T04:49:52.663Z,-5.18
2018-11-29T04:52:23.589Z,-5.15
2018-11-29T04:54:53.559Z,-5.22
2018-11-29T04:57:23.605Z,-5.14
2018-11-29T04:59:55.773Z,-5.17
2018-11-29T05:02:26.676Z,-5.03
2018-11-29T05:04:57.693Z,-5.00
2018-11-29T05:07:27.629Z,-5.04
2018-11-29T05:09:58.764Z,-5.07
2018-11-29T05:12:29.683Z,-5.06
2018-11-29T05:14:59.721Z,-5.09
2018-11-29T05:17:30.768Z,-5.08
2018-11-29T05:20:00.802Z,-4.98
2018-11-29T05:22:31.845Z,-4.91
2018-11-29T05:25:01.836Z,-4.95
2018-11-29T05:27:35.649Z,-4.84
2018-11-29T05:30:10.508Z,-4.82
2018-11-29T05:32:40.809Z,-4.74
2018-11-29T05:35:11.752Z,-4.80
2018-11-29T05:37:41.984Z,-4.71
2018-11-29T05:40:13.559Z,-4.69
2018-11-29T05:42:45.745Z,-4.82
2018-11-29T05:45:16.609Z,-4.90
2018-11-29T05:47:47.048Z,-4.94
2018-11-29T05:50:17.997Z,-4.83
2018-11-29T05:52:48.770Z,-4.82
2018-11-29T05:55:19.004Z,-4.88
2018-11-29T05:57:50.190Z,-4.83
2018-11-29T06:00:19.945Z,-4.88
2018-11-29T06:02:51.798Z,-4.81
2018-11-29T06:05:22.613Z,-4.83
2018-11-29T06:07:53.151Z,-4.70
2018-11-29T06:10:23.094Z,-4.74
2018-11-29T06:12:55.222Z,-4.62
2018-11-29T06:15:25.816Z,-4.55
2018-11-29T06:17:56.748Z,-4.58
2018-11-29T06:20:26.786Z,-4.62
2018-11-29T06:22:56.993Z,-4.74
2018-11-29T06:25:28.317Z,-4.73
2018-11-29T06:27:58.139Z,-4.69
2018-11-29T06:30:29.100Z,-4.60
2018-11-29T06:32:59.119Z,-4.69
2018-11-29T06:35:29.264Z,-4.73
2018-11-29T06:38:00.079Z,-4.65
2018-11-29T06:40:31.197Z,-4.65
2018-11-29T06:43:01.847Z,-4.76
2018-11-29T06:45:32.137Z,-4.75
2018-11-29T06:48:03.080Z,-4.59
2018-11-29T06:50:33.247Z,-4.61
2018-11-29T06:53:04.648Z,-4.50
2018-11-29T06:55:35.096Z,-4.42
2018-11-29T06:58:06.840Z,-4.30
2018-11-29T07:00:36.498Z,-4.28
2018-11-29T07:03:07.406Z,-4.22
2018-11-29T07:05:38.316Z,-4.07
2018-11-29T07:08:08.269Z,-3.97
2018-11-29T07:10:39.305Z,-3.89
2018-11-29T07:13:10.598Z,-3.91
2018-11-29T07:15:41.032Z,-3.74
2018-11-29T07:18:15.164Z,-3.74
2018-11-29T07:20:55.061Z,-3.55
2018-11-29T07:23:26.529Z,-3.56
2018-11-29T07:25:56.796Z,-3.49
2018-11-29T07:28:26.445Z,-3.30
2018-11-29T07:30:57.416Z,-3.26
2018-11-29T07:33:29.390Z,-3.18
2018-11-29T07:36:01.444Z,-3.18
2018-11-29T07:38:32.330Z,-3.02
2018-11-29T07:41:03.124Z,-3.02
2018-11-29T07:43:33.479Z,-2.93
2018-11-29T07:46:04.178Z,-2.89
2018-11-29T07:48:34.762Z,-2.80
2018-11-29T07:51:05.593Z,-2.74
2018-11-29T07:53:35.838Z,-2.58
2018-11-29T07:56:06.539Z,-2.61
2018-11-29T07:58:37.708Z,-2.54
2018-11-29T08:01:08.466Z,-2.56
2018-11-29T08:03:38.433Z,-2.43
2018-11-29T08:06:08.478Z,-2.40
2018-11-29T08:08:40.337Z,-2.34
2018-11-29T08:11:10.553Z,-2.20
2018-11-29T08:13:41.780Z,-2.11
2018-11-29T08:16:12.665Z,-2.12
2018-11-29T08:18:42.597Z,-2.05
2018-11-29T08:21:13.607Z,-2.06
2018-11-29T08:23:44.936Z,-1.97
2018-11-29T08:26:14.640Z,-1.94
2018-11-29T08:28:46.471Z,-2.02
2018-11-29T08:31:16.629Z,-1.97
2018-11-29T08:33:46.747Z,-1.88
2018-11-29T08:36:17.640Z,-1.89
2018-11-29T08:38:48.604Z,-1.68
2018-11-29T08:41:18.902Z,-1.48
2018-11-29T08:43:48.638Z,-1.61
2018-11-29T08:46:20.195Z,-1.51
2018-11-29T08:48:50.715Z,-1.50
2018-11-29T08:51:20.521Z,-1.47
2018-11-29T08:53:51.261Z,-1.44
2018-11-29T08:56:20.946Z,-1.51
2018-11-29T08:58:52.776Z,-1.37
2018-11-29T09:01:23.920Z,-1.36
2018-11-29T09:03:54.779Z,-1.35
2018-11-29T09:06:25.249Z,-1.32
2018-11-29T09:08:57.763Z,-1.34
2018-11-29T09:11:30.274Z,-1.20
2018-11-29T09:14:00.788Z,-1.07
2018-11-29T09:16:30.680Z,-0.99
2018-11-29T09:19:02.912Z,-0.87
2018-11-29T09:21:38.052Z,-0.85
2018-11-29T09:24:09.823Z,-0.85
2018-11-29T09:26:40.248Z,-0.92
2018-11-29T09:29:10.972Z,-0.83
2018-11-29T09:31:41.903Z,-0.76
2018-11-29T09:34:13.054Z,-0.76
2018-11-29T09:36:42.991Z,-0.65
2018-11-29T09:39:13.996Z,-0.62
2018-11-29T09:41:44.095Z,-0.44
2018-11-29T09:44:17.784Z,-0.39
2018-11-29T09:46:49.033Z,-0.37
2018-11-29T09:49:19.957Z,-0.34
2018-11-29T09:51:50.066Z,-0.22
2018-11-29T09:54:20.282Z,-0.21
2018-11-29T09:56:52.186Z,-0.17
2018-11-29T09:59:24.068Z,-0.12
2018-11-29T10:01:55.155Z,-0.04
2018-11-29T10:04:26.043Z,-0.03
2018-11-29T10:06:56.735Z,0.06
2018-11-29T10:09:26.961Z,0.08
2018-11-29T10:11:57.910Z,0.05
2018-11-29T10:14:28.638Z,-0.02
2018-11-29T10:16:59.110Z,0.03
2018-11-29T10:19:30.120Z,0.13
2018-11-29T10:22:00.914Z,0.30
2018-11-29T10:24:31.553Z,0.20
2018-11-29T10:27:01.977Z,0.32
2018-11-29T10:29:33.451Z,0.27
2018-11-29T10:32:04.085Z,0.20
2018-11-29T10:34:34.788Z,0.28
2018-11-29T10:37:05.728Z,0.28
2018-11-29T10:39:35.305Z,0.39
2018-11-29T10:42:05.130Z,0.37
2018-11-29T10:44:35.832Z,0.26
2018-11-29T10:47:08.374Z,0.25
2018-11-29T10:49:38.328Z,0.35
2018-11-29T10:52:09.733Z,0.43
2018-11-29T10:54:39.859Z,0.56
2018-11-29T10:57:10.437Z,0.71
2018-11-29T10:59:40.980Z,0.63
2018-11-29T11:02:18.241Z,0.71
2018-11-29T11:04:48.435Z,0.72
2018-11-29T11:07:20.227Z,0.84
2018-11-29T11:09:52.646Z,0.80
2018-11-29T11:12:23.321Z,0.83
2018-11-29T11:14:53.370Z,0.89
2018-11-29T11:17:23.452Z,0.92
2018-11-29T11:19:54.512Z,0.98
2018-11-29T11:22:26.405Z,1.04
2018-11-29T11:24:56.336Z,0.94
2018-11-29T11:27:26.379Z,0.86
2018-11-29T11:29:57.424Z,0.88
2018-11-29T11:32:29.320Z,0.91
2018-11-29T11:34:59.540Z,0.88
2018-11-29T11:37:30.396Z,0.92
2018-11-29T11:40:00.433Z,0.99
2018-11-29T11:42:30.612Z,0.99
2018-11-29T11:45:02.306Z,1.01
2018-11-29T11:47:33.515Z,0.97
2018-11-29T11:50:03.484Z,1.03
2018-11-29T11:52:34.442Z,1.09
2018-11-29T11:55:07.140Z,1.03
2018-11-29T11:57:38.615Z,1.10
2018-11-29T12:00:16.677Z,1.10
2018-11-29T12:02:49.969Z,1.15
2018-11-29T12:05:19.592Z,1.02
2018-11-29T12:07:50.854Z,1.06
2018-11-29T12:10:20.557Z,1.06
2018-11-29T12:12:50.521Z,1.15
2018-11-29T12:15:20.672Z,1.12
2018-11-29T12:17:52.678Z,1.05
2018-11-29T12:20:23.745Z,1.07
2018-11-29T12:22:53.705Z,1.00
2018-11-29T12:25:23.719Z,0.99
2018-11-29T12:27:54.682Z,1.02
2018-11-29T12:30:30.340Z,1.01
2018-11-29T12:33:03.848Z,1.11
2018-11-29T12:35:33.848Z,1.16
2018-11-29T12:38:03.672Z,1.07
2018-11-29T12:40:35.911Z,0.98
2018-11-29T12:43:07.113Z,1.11
2018-11-29T12:45:36.841Z,1.11
2018-11-29T12:48:06.917Z,1.03
2018-11-29T12:50:40.921Z,1.07
2018-11-29T12:53:11.830Z,1.00
2018-11-29T12:55:43.943Z,1.04
2018-11-29T12:58:13.539Z,1.13
2018-11-29T13:00:43.920Z,1.11
2018-11-29T13:03:13.906Z,1.00
2018-11-29T13:05:44.675Z,1.04
2018-11-29T13:08:17.759Z,1.00
2018-11-29T13:10:48.811Z,1.03
2018-11-29T13:13:19.997Z,1.01
2018-11-29T13:15:51.278Z,1.02
2018-11-29T13:18:20.928Z,1.01
2018-11-29T13:20:58.708Z,1.06
2018-11-29T13:23:24.856Z,1.01
2018-11-29T13:25:56.619Z,1.02
2018-11-29T13:28:27.261Z,1.12
2018-11-29T13:30:56.908Z,1.23
2018-11-29T13:36:16.383Z,1.13
2018-11-29T13:38:48.280Z,1.22
2018-11-29T13:41:19.068Z,1.23
2018-11-29T13:43:49.731Z,1.12
2018-11-29T13:46:22.035Z,1.21
2018-11-29T13:48:53.199Z,1.17
2018-11-29T13:51:24.189Z,1.12
2018-11-29T13:53:55.273Z,1.30
2018-11-29T13:56:25.260Z,1.46
2018-11-29T13:58:58.395Z,1.79
2018-11-29T14:01:27.993Z,1.74
2018-11-29T14:03:59.238Z,2.04
2018-11-29T14:06:29.702Z,2.44
2018-11-29T14:09:00.327Z,2.27
2018-11-29T14:11:30.239Z,2.29
2018-11-29T14:14:01.244Z,2.28
2018-11-29T14:16:31.590Z,2.23
2018-11-29T14:19:01.988Z,2.22
2018-11-29T14:21:32.371Z,2.40
2018-11-29T14:24:03.030Z,2.17
2018-11-29T14:26:33.253Z,2.03
2018-11-29T14:29:04.297Z,1.68
2018-11-29T14:31:34.719Z,1.46
2018-11-29T14:34:05.410Z,1.17
2018-11-29T14:36:35.487Z,1.02
2018-11-29T14:39:08.792Z,0.74
2018-11-29T14:41:43.182Z,0.55
2018-11-29T14:44:13.464Z,0.37
2018-11-29T14:46:44.344Z,0.15
2018-11-29T14:49:20.955Z,-0.06
2018-11-29T14:51:51.275Z,-0.22
2018-11-29T14:54:21.418Z,-0.29
2018-11-29T14:56:52.625Z,-0.47
2018-11-29T14:59:24.686Z,-0.52
2018-11-29T15:01:54.264Z,-0.41
2018-11-29T15:04:24.602Z,-0.60
2018-11-29T15:06:55.412Z,-0.66
2018-11-29T15:09:29.633Z,-0.72
2018-11-29T15:11:59.612Z,-0.79
2018-11-29T15:14:31.426Z,-0.84
2018-11-29T15:17:01.654Z,-0.92
2018-11-29T15:19:32.067Z,-0.96
2018-11-29T15:22:02.534Z,-0.91
2018-11-29T15:24:33.072Z,-0.97
2018-11-29T15:27:03.463Z,-0.94
2018-11-29T15:29:33.639Z,-0.92
2018-11-29T15:32:05.048Z,-0.90
2018-11-29T15:34:35.024Z,-1.01
2018-11-29T15:37:05.210Z,-1.01
2018-11-29T15:39:37.419Z,-0.97
2018-11-29T15:42:09.144Z,-1.07
2018-11-29T15:44:40.364Z,-1.09
2018-11-29T15:47:10.384Z,-1.09
2018-11-29T15:49:41.247Z,-1.12
2018-11-29T15:52:15.184Z,-1.12
2018-11-29T15:54:45.359Z,-1.18
2018-11-29T15:57:16.405Z,-1.02
2018-11-29T15:59:47.216Z,-1.05
2018-11-29T16:02:17.359Z,-1.09
2018-11-29T16:04:48.469Z,-1.14
2018-11-29T16:07:18.060Z,-1.11
2018-11-29T16:09:55.370Z,-1.12
2018-11-29T16:12:27.614Z,-1.12
2018-11-29T16:14:59.304Z,-1.12
2018-11-29T16:17:29.928Z,-1.04
2018-11-29T16:20:01.105Z,-1.05
2018-11-29T16:22:31.411Z,-1.01
2018-11-29T16:25:01.935Z,-1.05
2018-11-29T16:27:32.904Z,-1.06
2018-11-29T16:30:03.374Z,-1.07
2018-11-29T16:32:33.925Z,-1.13
2018-11-29T16:35:10.295Z,-1.13
2018-11-29T16:37:41.535Z,-1.12
2018-11-29T16:40:11.511Z,-1.13
2018-11-29T16:42:42.637Z,-1.10
2018-11-29T16:45:14.286Z,-1.19
2018-11-29T16:47:44.723Z,-1.13
2018-11-29T16:50:17.111Z,-1.10
2018-11-29T16:52:46.767Z,-1.22
2018-11-29T16:55:17.706Z,-1.23
2018-11-29T16:57:49.622Z,-1.17
2018-11-29T17:00:22.419Z,-1.22
2018-11-29T17:02:52.567Z,-1.28
2018-11-29T17:05:24.514Z,-1.21
2018-11-29T17:07:56.610Z,-1.19
2018-11-29T17:10:27.078Z,-1.19
2018-11-29T17:13:05.978Z,-1.16
2018-11-29T17:15:37.515Z,-1.24
2018-11-29T17:18:07.846Z,-1.39
2018-11-29T17:20:38.711Z,-1.50
2018-11-29T17:23:10.073Z,-1.60
2018-11-29T17:25:39.881Z,-1.62
2018-11-29T17:28:10.728Z,-1.66
2018-11-29T17:30:41.808Z,-1.68
2018-11-29T17:33:11.761Z,-1.69
2018-11-29T17:35:42.817Z,-1.68
2018-11-29T17:38:12.887Z,-1.58
2018-11-29T17:40:43.677Z,-1.55
2018-11-29T17:43:14.796Z,-1.58
2018-11-29T17:45:47.368Z,-1.65
2018-11-29T17:48:17.394Z,-1.61
2018-11-29T17:50:47.726Z,-1.64
2018-11-29T17:53:17.985Z,-1.63
2018-11-29T17:55:49.673Z,-1.63
2018-11-29T17:58:21.316Z,-1.64
2018-11-29T18:00:54.992Z,-1.63
2018-11-29T18:03:29.271Z,-1.67
2018-11-29T18:05:58.960Z,-1.76
2018-11-29T18:08:30.043Z,-1.70
2018-11-29T18:11:00.249Z,-1.78
2018-11-29T18:13:34.153Z,-1.72
2018-11-29T18:16:04.404Z,-1.75
2018-11-29T18:18:36.935Z,-1.71
2018-11-29T18:21:07.984Z,-1.81
2018-11-29T18:23:38.966Z,-1.83
2018-11-29T18:26:11.254Z,-1.91
2018-11-29T18:28:42.964Z,-1.96
2018-11-29T18:31:13.061Z,-1.96
2018-11-29T18:33:46.599Z,-1.98
2018-11-29T18:36:21.035Z,-2.03
2018-11-29T18:38:51.200Z,-2.06
2018-11-29T18:41:20.894Z,-2.12
2018-11-29T18:43:53.452Z,-2.07
2018-11-29T18:46:23.044Z,-2.09
2018-11-29T18:48:55.992Z,-2.12
2018-11-29T18:51:27.416Z,-2.08
2018-11-29T18:53:57.105Z,-2.16
2018-11-29T18:56:28.235Z,-2.23
2018-11-29T18:58:59.089Z,-2.28
2018-11-29T19:01:29.116Z,-2.27
2018-11-29T19:04:00.672Z,-2.27
2018-11-29T19:06:31.108Z,-2.29
2018-11-29T19:09:04.110Z,-2.28
2018-11-29T19:11:37.293Z,-2.31
2018-11-29T19:14:10.283Z,-2.31
2018-11-29T19:16:40.352Z,-2.34
2018-11-29T19:19:10.197Z,-2.36
2018-11-29T19:21:40.322Z,-2.40
2018-11-29T19:24:11.247Z,-2.44
2018-11-29T19:26:42.215Z,-2.45
2018-11-29T19:29:14.548Z,-2.46
2018-11-29T19:31:45.159Z,-2.46
2018-11-29T19:34:15.377Z,-2.52
2018-11-29T19:36:46.043Z,-2.52
2018-11-29T19:39:16.438Z,-2.56
2018-11-29T19:41:53.634Z,-2.50
2018-11-29T19:44:24.420Z,-2.55
2018-11-29T19:46:56.948Z,-2.52
2018-11-29T19:49:27.266Z,-2.56
2018-11-29T19:51:57.459Z,-2.54
2018-11-29T19:54:28.517Z,-2.52
2018-11-29T19:56:59.472Z,-2.53
2018-11-29T19:59:30.667Z,-2.56
2018-11-29T20:02:03.479Z,-2.58
2018-11-29T20:04:34.399Z,-2.55
2018-11-29T20:07:05.524Z,-2.59
2018-11-29T20:09:37.681Z,-2.67
2018-11-29T20:12:08.524Z,-2.67
2018-11-29T20:14:39.113Z,-2.67
2018-11-29T20:17:09.543Z,-2.64
2018-11-29T20:19:40.622Z,-2.64
2018-11-29T20:22:10.679Z,-2.65
2018-11-29T20:24:41.576Z,-2.66
2018-11-29T20:27:12.579Z,-2.66
2018-11-29T20:29:42.580Z,-2.64
2018-11-29T20:32:13.724Z,-2.61
2018-11-29T20:34:48.241Z,-2.62
2018-11-29T20:37:17.997Z,-2.58
2018-11-29T20:39:48.574Z,-2.57
2018-11-29T20:42:18.280Z,-2.61
2018-11-29T20:44:50.402Z,-2.67
2018-11-29T20:47:21.680Z,-2.70
2018-11-29T20:49:53.674Z,-2.74
2018-11-29T20:52:25.604Z,-2.77
2018-11-29T20:54:57.601Z,-2.80
2018-11-29T20:57:27.576Z,-2.79
2018-11-29T20:59:58.608Z,-2.81
2018-11-29T21:02:28.681Z,-2.82
2018-11-29T21:04:59.654Z,-2.83
2018-11-29T21:07:29.664Z,-2.85
2018-11-29T21:10:03.043Z,-2.82
2018-11-29T21:12:31.662Z,-2.88
2018-11-29T21:15:02.531Z,-2.80
2018-11-29T21:17:34.797Z,-2.80
2018-11-29T21:20:08.334Z,-2.80
2018-11-29T21:22:39.379Z,-2.77
2018-11-29T21:25:17.814Z,-2.86
2018-11-29T21:27:49.774Z,-2.80
2018-11-29T21:30:21.868Z,-2.79
2018-11-29T21:32:51.647Z,-2.77
2018-11-29T21:35:22.917Z,-2.78
2018-11-29T21:37:54.907Z,-2.76
2018-11-29T21:40:27.382Z,-2.80
2018-11-29T21:42:58.964Z,-2.77
2018-11-29T21:45:30.045Z,-2.79
2018-11-29T21:48:00.592Z,-2.73
2018-11-29T21:50:30.902Z,-2.77
2018-11-29T21:53:01.802Z,-2.71
2018-11-29T21:55:32.650Z,-2.77
2018-11-29T21:58:02.944Z,-2.75
2018-11-29T22:00:34.107Z,-2.68
2018-11-29T22:03:04.776Z,-2.73
2018-11-29T22:05:34.848Z,-2.82
2018-11-29T22:08:05.698Z,-2.84
2018-11-29T22:10:36.020Z,-2.86
2018-11-29T22:13:06.511Z,-2.81
2018-11-29T22:15:36.899Z,-2.78
2018-11-29T22:18:21.735Z,-2.74
2018-11-29T22:20:55.875Z,-2.80
2018-11-29T22:23:25.856Z,-2.80
2018-11-29T22:25:58.283Z,-2.81
2018-11-29T22:28:30.476Z,-2.79
2018-11-29T22:31:00.881Z,-2.65
2018-11-29T22:33:33.032Z,-2.67
2018-11-29T22:36:06.301Z,-2.64
2018-11-29T22:38:38.163Z,-2.63
2018-11-29T22:41:09.168Z,-2.64
2018-11-29T22:43:39.190Z,-2.78
2018-11-29T22:46:10.087Z,-2.79
2018-11-29T22:48:40.320Z,-2.80
2018-11-29T22:51:11.015Z,-2.76
2018-11-29T22:53:41.281Z,-2.64
2018-11-29T22:56:14.859Z,-2.71
2018-11-29T22:58:45.843Z,-2.72
2018-11-29T23:01:28.451Z,-2.70
2018-11-29T23:03:59.245Z,-2.70
2018-11-29T23:06:30.153Z,-2.65
2018-11-29T23:09:01.156Z,-2.62
2018-11-29T23:11:31.351Z,-2.68
2018-11-29T23:14:01.225Z,-2.68
2018-11-29T23:16:32.271Z,-2.59
2018-11-29T23:19:04.140Z,-2.61
2018-11-29T23:21:36.221Z,-2.45
2018-11-29T23:24:07.263Z,-2.49
2018-11-29T23:26:38.585Z,-2.49
2018-11-29T23:29:08.199Z,-2.48
2018-11-29T23:31:39.229Z,-2.51
2018-11-29T23:34:12.306Z,-2.54
2018-11-29T23:36:43.632Z,-2.56
2018-11-29T23:39:15.026Z,-2.58
2018-11-29T23:41:47.480Z,-2.52
2018-11-29T23:44:18.063Z,-2.53
2018-11-29T23:46:50.679Z,-2.48
2018-11-29T23:49:22.567Z,-2.50
2018-11-29T23:51:54.756Z,-2.54
2018-11-29T23:54:27.372Z,-2.50
2018-11-29T23:56:58.325Z,-2.50
2018-11-29T23:59:29.598Z,-2.54
